Main page
METAR-TAF:

METAR-TAF

Airports :

Darke County Airport

Versailles, Ohio, United States

latitude: 40-12-16N, longitude: 084-31-55W, elevation: 1007 ft

Current weather observation

The report was made 16 minutes ago, at 04:55 UTC
Wind 13 mph from the Northwest with gusts up to 17 mph
Temperature 41°F
Humidity 87%
Pressure 30.08 in. Hg
Visibility: 10 miles
Scattered clouds at a height of 100 ft
Scattered clouds at a height of 1900 ft

METAR: KVES 280455Z AUTO 32011G15KT 10SM SCT001 SCT019 05/03 A3008 RMK AO2

Time: 00:11 (05:11 UTC)


TAF: missing

Weather observations and forecasts of more than 4000 airports (METAR and TAF reports).

The available stations are represented by yellow and red dots on the map.

Hover mouse over dot to see the name of the station.

Then click to see weather observations and forecasts.

To change the map : click on the green buttons with a black cross to zoom in, on the green button with a dash to zoom out, or on the green arrows for adjacent maps.


METAR-TAF: